Time;durP1;ratioP1;P1;durP2;ratioP2;P2;SDS_P1;SDS_P2;PMS_P1;PMS_P2;Temp;Humidity;BMP_temperature;BMP_pressure;BME280_temperature;BME280_humidity;BME280_pressure;Samples;Min_cycle;Max_cycle;Signal;HPM_P1;HPM_P2
2023/09/28 00:01:47;;;;;;;26.23;11.10;;;;;;;16.31;85.99;100576.66;4999904;28;20058;-77
2023/09/28 00:04:13;;;;;;;30.45;11.90;;;;;;;16.20;85.97;100579.72;5031184;28;20053;-76
2023/09/28 00:06:40;;;;;;;24.88;12.23;;;;;;;16.30;85.80;100585.69;5032548;28;20440;-77
2023/09/28 00:09:06;;;;;;;26.80;11.57;;;;;;;16.21;85.92;100574.19;5049195;28;20483;-78
2023/09/28 00:11:31;;;;;;;25.65;10.48;;;;;;;16.17;86.32;100570.19;5033137;28;20068;-77
2023/09/28 00:13:57;;;;;;;24.33;10.45;;;;;;;16.15;86.27;100574.88;5003101;28;20044;-77
2023/09/28 00:16:23;;;;;;;25.77;9.05;;;;;;;16.12;86.46;100583.25;5019596;28;20227;-77
2023/09/28 00:18:49;;;;;;;25.52;11.90;;;;;;;16.12;86.57;100588.59;5003604;28;20056;-77
2023/09/28 00:21:15;;;;;;;19.30;9.20;;;;;;;16.07;86.31;100584.75;5019447;28;20061;-76
2023/09/28 00:23:41;;;;;;;27.83;10.25;;;;;;;15.88;86.91;100585.97;5003417;28;20398;-77
2023/09/28 00:26:07;;;;;;;23.65;9.98;;;;;;;15.85;87.73;100588.16;5036392;28;20044;-77
2023/09/28 00:28:34;;;;;;;21.58;9.68;;;;;;;15.77;87.96;100582.78;4980752;28;20483;-77
2023/09/28 00:31:04;;;;;;;22.58;11.35;;;;;;;15.74;88.25;100583.97;4964488;28;20057;-76
2023/09/28 00:33:31;;;;;;;27.27;10.77;;;;;;;15.68;88.21;100589.16;4965629;28;20152;-77
2023/09/28 00:36:06;;;;;;;28.42;12.77;;;;;;;15.63;88.81;100578.09;4998456;28;20120;-76
2023/09/28 00:38:31;;;;;;;28.23;11.65;;;;;;;15.60;88.82;100590.00;4966543;28;20065;-77
2023/09/28 00:40:57;;;;;;;22.55;12.07;;;;;;;15.51;89.07;100590.16;4957781;28;20051;-76
2023/09/28 00:43:26;;;;;;;18.90;11.15;;;;;;;15.51;89.90;100579.44;4958045;28;20137;-79
2023/09/28 00:45:51;;;;;;;23.55;10.80;;;;;;;15.43;90.04;100582.94;4957977;28;20050;-75
2023/09/28 00:48:20;;;;;;;23.83;11.90;;;;;;;15.37;90.43;100585.41;4957465;28;20129;-76
2023/09/28 00:50:47;;;;;;;28.05;12.15;;;;;;;15.40;90.71;100577.09;4909928;28;20062;-76
2023/09/28 00:53:14;;;;;;;32.97;12.15;;;;;;;15.44;90.65;100573.09;4973655;28;20047;-75
2023/09/28 00:55:42;;;;;;;27.85;12.00;;;;;;;15.42;90.57;100575.09;4955948;28;20046;-76
2023/09/28 00:58:11;;;;;;;31.15;11.15;;;;;;;15.35;90.73;100580.22;4941049;28;20077;-76
2023/09/28 01:00:38;;;;;;;19.05;9.82;;;;;;;15.32;90.67;100583.22;4978464;28;20476;-76
2023/09/28 01:03:10;;;;;;;20.65;10.85;;;;;;;15.36;91.00;100575.72;4979750;28;20514;-76
2023/09/28 01:05:40;;;;;;;23.45;10.57;;;;;;;15.39;91.03;100581.59;4980414;28;20199;-75
2023/09/28 01:08:14;;;;;;;20.43;10.97;;;;;;;15.43;90.91;100571.41;5012275;28;20038;-79
2023/09/28 01:10:41;;;;;;;20.30;11.15;;;;;;;15.40;90.56;100583.28;4980146;28;20042;-76
2023/09/28 01:13:12;;;;;;;25.13;10.48;;;;;;;15.41;90.40;100589.47;5017478;28;20037;-76
2023/09/28 01:15:42;;;;;;;24.92;9.70;;;;;;;15.42;90.21;100592.00;5004800;28;20052;-77
2023/09/28 01:18:17;;;;;;;22.50;9.68;;;;;;;15.49;90.40;100581.44;5038188;28;20045;-77
2023/09/28 01:20:44;;;;;;;19.05;9.23;;;;;;;15.43;90.03;100568.72;5001309;28;20107;-76
2023/09/28 01:23:10;;;;;;;19.33;9.13;;;;;;;15.46;89.94;100581.75;5001244;28;20053;-76
2023/09/28 01:25:38;;;;;;;17.33;9.30;;;;;;;15.50;89.68;100578.59;5002614;28;20106;-76
2023/09/28 01:28:05;;;;;;;16.95;8.75;;;;;;;15.49;89.49;100571.56;5005484;28;20109;-77
2023/09/28 01:30:33;;;;;;;15.43;8.90;;;;;;;15.53;89.24;100583.59;5017713;28;20460;-77
2023/09/28 01:32:59;;;;;;;21.65;8.73;;;;;;;15.46;89.10;100587.97;5019413;28;20063;-76
2023/09/28 01:35:27;;;;;;;24.25;9.27;;;;;;;15.49;89.39;100582.28;5019135;28;20132;-77
2023/09/28 01:38:28;;;;;;;18.27;8.40;;;;;;;15.56;89.50;100580.59;5002443;28;20589;-76
2023/09/28 01:40:54;;;;;;;18.67;10.07;;;;;;;15.50;89.07;100580.44;5018053;28;20100;-77
2023/09/28 01:43:20;;;;;;;16.73;10.07;;;;;;;15.42;88.73;100575.94;4995253;28;20057;-76
2023/09/28 01:45:47;;;;;;;20.70;10.50;;;;;;;15.40;89.14;100577.94;4962943;28;20060;-76
2023/09/28 01:48:15;;;;;;;16.85;8.80;;;;;;;15.42;89.12;100583.13;4979516;28;20077;-76
2023/09/28 01:50:41;;;;;;;17.67;9.32;;;;;;;15.37;89.14;100570.19;4978640;28;20042;-77
2023/09/28 01:53:07;;;;;;;16.02;9.18;;;;;;;15.26;89.28;100570.50;4962484;28;20057;-77
2023/09/28 01:55:33;;;;;;;21.60;9.23;;;;;;;15.28;89.48;100574.69;4962933;28;20046;-77
2023/09/28 01:57:59;;;;;;;17.63;10.07;;;;;;;15.21;89.87;100571.00;4962097;28;20112;-78
2023/09/28 02:00:26;;;;;;;16.80;9.35;;;;;;;15.20;89.81;100569.34;4978755;28;20081;-76
2023/09/28 02:02:56;;;;;;;21.30;10.05;;;;;;;15.23;90.28;100566.34;4962802;28;20046;-76
2023/09/28 02:05:25;;;;;;;17.17;8.80;;;;;;;15.18;89.95;100574.03;4978887;28;20052;-76
2023/09/28 02:07:51;;;;;;;24.67;10.30;;;;;;;15.11;89.98;100561.47;4978548;28;20046;-76
2023/09/28 02:10:20;;;;;;;16.52;10.10;;;;;;;15.12;89.97;100572.00;4978178;28;20034;-76
2023/09/28 02:12:47;;;;;;;21.40;11.60;;;;;;;15.10;90.27;100582.03;4978870;28;20046;-76
2023/09/28 02:15:18;;;;;;;25.30;12.35;;;;;;;15.15;90.16;100574.34;4996356;28;20045;-77
2023/09/28 02:17:45;;;;;;;24.17;12.63;;;;;;;15.05;90.39;100570.16;5015344;28;20045;-76
2023/09/28 02:20:15;;;;;;;24.83;11.32;;;;;;;15.07;90.42;100576.16;4995488;28;20077;-76
2023/09/28 02:22:44;;;;;;;24.50;12.43;;;;;;;15.03;90.28;100583.69;4962490;28;20053;-77
2023/09/28 02:25:15;;;;;;;21.90;13.13;;;;;;;14.99;90.72;100568.94;4962909;28;20207;-76
2023/09/28 02:27:47;;;;;;;23.58;12.48;;;;;;;14.97;90.56;100570.97;4979016;28;20045;-76
2023/09/28 02:30:17;;;;;;;22.02;12.35;;;;;;;14.91;90.91;100574.28;4978528;28;20049;-77
2023/09/28 02:32:43;;;;;;;21.55;11.65;;;;;;;14.77;91.32;100585.63;4962342;28;20067;-74
2023/09/28 02:35:14;;;;;;;22.27;10.80;;;;;;;14.80;91.50;100576.44;4979143;28;20053;-75
2023/09/28 02:37:44;;;;;;;;;;;;;;;14.91;91.48;100576.94;4972012;28;20135;-76
2023/09/28 02:40:11;;;;;;;26.48;11.68;;;;;;;14.77;91.71;100587.44;5001158;28;19929;-76
2023/09/28 02:42:37;;;;;;;18.85;11.15;;;;;;;14.75;91.56;100581.41;4994940;28;20530;-76
2023/09/28 02:45:11;;;;;;;21.52;12.57;;;;;;;14.75;91.49;100582.25;4959384;28;20062;-76
2023/09/28 02:47:46;;;;;;;23.95;12.02;;;;;;;14.81;92.07;100580.75;4960755;28;20062;-76
2023/09/28 02:50:19;;;;;;;22.67;13.65;;;;;;;14.80;92.25;100589.78;4962130;28;20065;-75
2023/09/28 02:52:46;;;;;;;22.92;11.40;;;;;;;14.70;92.18;100583.72;4946622;28;20132;-75
2023/09/28 02:55:13;;;;;;;23.35;10.95;;;;;;;14.71;92.21;100578.25;5010153;28;20050;-75
2023/09/28 02:57:42;;;;;;;16.85;9.10;;;;;;;14.72;92.26;100582.59;4978338;28;20060;-76
2023/09/28 03:00:51;;;;;;;22.85;11.35;;;;;;;14.67;92.33;100592.91;4961842;28;20050;-76
2023/09/28 03:03:00;;;;;;;;;;;;;;;14.89;92.99;100591.50;4949634;28;20073;-76
2023/09/28 03:05:28;;;;;;;20.15;11.05;;;;;;;14.74;92.49;100591.28;4961754;28;20343;-76
2023/09/28 03:07:54;;;;;;;16.17;8.55;;;;;;;14.81;92.50;100594.13;4951341;28;20054;-75
2023/09/28 03:10:21;;;;;;;17.13;8.90;;;;;;;14.84;92.20;100581.28;4935898;29;20096;-76
2023/09/28 03:12:49;;;;;;;17.85;9.00;;;;;;;14.87;92.11;100580.97;4951813;28;20055;-76
2023/09/28 03:15:18;;;;;;;15.65;8.15;;;;;;;14.88;91.60;100579.94;4939337;28;20086;-76
2023/09/28 03:17:48;;;;;;;16.95;9.07;;;;;;;14.86;91.79;100579.28;4923653;28;20055;-76
2023/09/28 03:20:15;;;;;;;14.33;8.10;;;;;;;14.90;91.83;100588.66;4939628;28;20058;-76
2023/09/28 03:22:45;;;;;;;20.63;9.30;;;;;;;15.03;91.49;100586.38;4939140;28;20353;-77
2023/09/28 03:25:21;;;;;;;20.02;8.38;;;;;;;14.87;91.72;100575.59;4924124;28;20054;-76
2023/09/28 03:27:51;;;;;;;14.65;7.22;;;;;;;14.92;91.98;100584.00;4957143;28;20501;-77
2023/09/28 03:30:20;;;;;;;19.27;8.20;;;;;;;14.89;92.10;100578.13;4955709;28;20054;-77
2023/09/28 03:32:47;;;;;;;17.95;8.25;;;;;;;14.91;91.90;100578.81;4955704;28;20059;-76
2023/09/28 03:35:13;;;;;;;19.25;8.43;;;;;;;14.91;91.47;100586.84;4938972;28;20125;-76
2023/09/28 03:37:40;;;;;;;19.90;8.13;;;;;;;14.96;91.65;100579.16;4935494;29;20061;-77
2023/09/28 03:40:12;;;;;;;15.57;7.95;;;;;;;14.92;91.77;100575.97;4993989;28;20102;-77
2023/09/28 03:42:43;;;;;;;16.10;7.60;;;;;;;14.99;91.73;100581.50;4954960;28;20097;-77
2023/09/28 03:45:11;;;;;;;16.52;7.80;;;;;;;15.01;91.52;100577.66;4938760;28;20055;-77
2023/09/28 03:47:40;;;;;;;20.33;7.90;;;;;;;14.99;91.74;100586.88;4940053;28;20058;-77
2023/09/28 03:50:12;;;;;;;14.48;7.30;;;;;;;14.97;91.81;100580.81;4956530;28;20058;-77
2023/09/28 03:52:39;;;;;;;14.23;7.60;;;;;;;14.97;91.32;100586.19;4940053;29;20173;-77
2023/09/28 03:55:08;;;;;;;18.10;7.38;;;;;;;15.03;91.42;100582.84;4940080;29;20055;-78
2023/09/28 03:57:34;;;;;;;16.70;8.43;;;;;;;15.02;90.84;100592.69;4954958;28;20130;-77
2023/09/28 04:00:00;;;;;;;20.38;10.38;;;;;;;15.05;90.50;100580.84;4955100;28;20489;-77
2023/09/28 04:02:40;;;;;;;12.60;9.48;;;;;;;15.07;90.45;100593.06;4925506;28;20153;-76
2023/09/28 04:05:08;;;;;;;19.00;9.95;;;;;;;15.14;90.51;100598.59;4924220;29;20446;-77
2023/09/28 04:07:40;;;;;;;17.88;9.90;;;;;;;15.21;90.13;100589.75;4923837;29;20051;-79
2023/09/28 04:10:07;;;;;;;;;;;;;;;15.28;89.72;100596.09;4924277;29;20069;-79
2023/09/28 04:12:34;;;;;;;20.05;8.65;;;;;;;15.19;89.39;100591.75;4923928;28;20137;-76
2023/09/28 04:15:10;;;;;;;13.95;8.27;;;;;;;15.32;89.42;100590.41;4988509;28;20080;-78
2023/09/28 04:17:40;;;;;;;16.20;8.50;;;;;;;15.26;89.34;100589.25;5001233;28;20095;-77
2023/09/28 04:20:13;;;;;;;31.70;19.13;;;;;;;15.30;88.85;100597.78;4997770;28;20063;-77
2023/09/28 04:22:43;;;;;;;35.63;25.67;;;;;;;15.26;88.51;100607.97;5003844;28;20049;-76
2023/09/28 04:25:10;;;;;;;42.55;28.77;;;;;;;15.38;88.45;100601.34;5019109;28;20045;-74
2023/09/28 04:27:36;;;;;;;38.63;28.13;;;;;;;15.41;87.87;100614.41;5019613;28;20079;-75
2023/09/28 04:30:03;;;;;;;45.10;32.28;;;;;;;15.45;87.78;100607.72;4987852;28;20037;-74
2023/09/28 04:32:31;;;;;;;41.97;26.42;;;;;;;15.46;87.13;100611.22;5020053;28;20102;-73
2023/09/28 04:34:57;;;;;;;29.10;17.63;;;;;;;15.44;87.12;100615.94;5018516;28;20064;-75
2023/09/28 04:37:26;;;;;;;23.67;12.73;;;;;;;15.45;87.09;100610.41;4979535;28;20062;-73
2023/09/28 04:39:53;;;;;;;20.73;10.63;;;;;;;15.42;87.36;100618.75;4996292;28;20062;-72
2023/09/28 04:42:20;;;;;;;17.70;9.45;;;;;;;15.41;87.44;100614.41;4996082;28;20132;-72
2023/09/28 04:44:46;;;;;;;17.52;9.15;;;;;;;15.36;87.49;100610.53;4979557;28;20115;-72
2023/09/28 04:47:13;;;;;;;12.40;8.00;;;;;;;15.27;88.06;100606.97;4979531;28;20154;-73
2023/09/28 04:49:42;;;;;;;12.65;8.35;;;;;;;15.27;88.19;100612.31;4979763;28;20049;-69
2023/09/28 04:52:13;;;;;;;17.30;8.70;;;;;;;15.23;88.12;100603.81;5008040;28;20060;-71
2023/09/28 04:54:40;;;;;;;15.10;7.88;;;;;;;15.28;88.56;100600.63;5014420;28;20151;-71
2023/09/28 04:57:06;;;;;;;16.02;8.05;;;;;;;15.30;88.25;100614.66;4997019;28;20475;-71
2023/09/28 04:59:38;;;;;;;14.35;8.35;;;;;;;15.43;87.94;100609.72;4980251;28;20088;-71
2023/09/28 05:02:05;;;;;;;14.52;8.63;;;;;;;15.47;87.75;100604.88;4964194;28;20081;-73
2023/09/28 05:04:31;;;;;;;15.95;8.85;;;;;;;15.56;86.81;100610.06;4980861;28;20053;-72
2023/09/28 05:06:59;;;;;;;19.20;9.45;;;;;;;15.50;86.53;100616.06;4995054;28;20049;-73
2023/09/28 05:09:28;;;;;;;18.60;8.52;;;;;;;15.64;86.74;100606.53;5015435;28;20053;-73
2023/09/28 05:11:59;;;;;;;19.35;8.77;;;;;;;15.49;86.44;100610.88;5029643;28;20041;-73
2023/09/28 05:14:26;;;;;;;16.90;9.05;;;;;;;15.48;86.79;100610.06;5034898;28;20048;-72
2023/09/28 05:16:54;;;;;;;14.57;7.95;;;;;;;15.48;86.61;100609.22;5051458;28;20041;-72
2023/09/28 05:19:21;;;;;;;20.27;8.20;;;;;;;15.43;86.92;100606.19;5035180;28;20045;-75
2023/09/28 05:21:48;;;;;;;12.15;7.80;;;;;;;15.41;87.34;100601.00;5031520;28;20056;-72
2023/09/28 05:24:14;;;;;;;15.32;8.02;;;;;;;15.54;87.20;100595.16;5039553;28;20479;-72
2023/09/28 05:26:40;;;;;;;14.75;8.48;;;;;;;15.57;86.83;100584.97;5008385;28;20049;-72
2023/09/28 05:29:06;;;;;;;15.70;8.90;;;;;;;15.64;87.32;100593.16;4998682;28;20046;-73
2023/09/28 05:31:33;;;;;;;18.25;8.65;;;;;;;15.64;86.93;100596.69;5022785;28;20596;-73
2023/09/28 05:34:00;;;;;;;22.20;8.82;;;;;;;15.72;87.20;100601.19;5024959;28;20124;-74
2023/09/28 05:36:26;;;;;;;16.42;9.57;;;;;;;15.82;86.51;100591.16;5007272;28;20432;-74
2023/09/28 05:38:51;;;;;;;21.33;9.32;;;;;;;15.88;86.32;100590.47;5015014;28;20037;-76
2023/09/28 05:41:17;;;;;;;19.25;8.60;;;;;;;15.99;86.25;100592.81;5007601;28;20041;-79
2023/09/28 05:43:43;;;;;;;22.90;10.20;;;;;;;16.10;85.91;100605.84;5025161;28;20048;-74
2023/09/28 05:46:09;;;;;;;23.17;10.98;;;;;;;16.35;85.55;100597.59;5040449;28;20033;-71
2023/09/28 05:48:36;;;;;;;18.63;10.15;;;;;;;16.60;84.77;100601.94;5007352;28;20147;-75
2023/09/28 05:51:04;;;;;;;23.48;10.20;;;;;;;16.76;83.89;100601.00;5024898;28;20109;-75
2023/09/28 05:53:30;;;;;;;22.55;8.90;;;;;;;16.78;83.47;100605.19;5040367;28;20136;-77
2023/09/28 05:55:56;;;;;;;20.50;8.88;;;;;;;17.02;83.25;100601.53;5034762;28;20037;-74
2023/09/28 05:58:22;;;;;;;17.08;8.52;;;;;;;17.17;82.78;100604.31;5033981;28;20068;-76
2023/09/28 06:00:48;;;;;;;15.95;8.48;;;;;;;17.33;82.20;100615.78;5001537;28;20045;-75
2023/09/28 06:03:14;;;;;;;20.58;7.95;;;;;;;17.41;81.96;100613.06;5034254;28;20053;-75
2023/09/28 06:05:40;;;;;;;16.17;8.55;;;;;;;17.53;81.04;100618.91;5032221;28;20131;-73
2023/09/28 06:08:06;;;;;;;18.60;8.43;;;;;;;17.71;81.32;100624.81;5050124;28;20132;-75
2023/09/28 06:10:33;;;;;;;23.40;8.40;;;;;;;17.96;80.60;100628.94;5033649;28;20072;-73
2023/09/28 06:13:00;;;;;;;15.82;8.40;;;;;;;18.15;79.27;100623.91;5013450;28;20042;-74
2023/09/28 06:15:26;;;;;;;13.45;8.07;;;;;;;18.42;78.87;100622.47;5014203;28;20061;-74
2023/09/28 06:17:51;;;;;;;11.88;8.02;;;;;;;18.61;77.81;100624.63;4997569;28;20135;-73
2023/09/28 06:20:17;;;;;;;17.60;8.50;;;;;;;18.82;76.47;100624.69;4997416;28;20144;-73
2023/09/28 06:22:43;;;;;;;14.43;7.35;;;;;;;18.97;75.41;100628.25;5030059;28;20057;-74
2023/09/28 06:25:09;;;;;;;12.80;7.78;;;;;;;19.17;74.61;100625.78;5013848;28;20598;-73
2023/09/28 06:27:37;;;;;;;19.27;7.68;;;;;;;19.41;73.78;100615.53;4981619;28;20053;-73
2023/09/28 06:30:04;;;;;;;12.48;8.02;;;;;;;19.58;73.11;100614.25;4997839;28;20064;-74
2023/09/28 06:32:32;;;;;;;14.20;7.68;;;;;;;19.72;71.50;100604.41;5030548;28;20463;-71
2023/09/28 06:34:58;;;;;;;14.82;7.53;;;;;;;19.86;71.58;100606.22;5030490;28;20044;-69
2023/09/28 06:37:24;;;;;;;13.57;6.93;;;;;;;20.13;70.63;100601.88;5013379;28;20131;-73
2023/09/28 06:39:51;;;;;;;13.10;6.75;;;;;;;20.34;69.25;100609.94;5029916;28;20061;-74
2023/09/28 06:42:17;;;;;;;13.00;6.38;;;;;;;20.51;67.32;100617.50;4996173;28;20037;-74
2023/09/28 06:44:43;;;;;;;13.40;6.70;;;;;;;20.67;67.01;100610.97;4995276;28;20042;-74
2023/09/28 06:47:09;;;;;;;15.57;6.18;;;;;;;20.88;67.09;100603.59;5012009;28;20037;-73
2023/09/28 06:49:36;;;;;;;13.65;6.40;;;;;;;21.07;65.78;100610.16;4996622;28;20045;-72
2023/09/28 06:52:01;;;;;;;15.20;6.05;;;;;;;21.30;63.81;100608.78;5029281;28;20052;-73
2023/09/28 06:54:27;;;;;;;10.75;5.85;;;;;;;21.46;62.78;100600.28;5014500;28;20045;-72
2023/09/28 06:56:53;;;;;;;21.05;6.85;;;;;;;21.63;62.61;100600.75;5030527;28;20458;-73
2023/09/28 06:59:20;;;;;;;16.75;5.97;;;;;;;21.90;61.28;100599.75;5029896;28;20053;-71
2023/09/28 07:01:47;;;;;;;16.60;6.90;;;;;;;22.22;61.18;100590.78;5013870;28;20056;-74
2023/09/28 07:04:12;;;;;;;14.82;6.57;;;;;;;22.41;60.06;100570.97;5013538;28;20145;-74
2023/09/28 07:06:38;;;;;;;16.38;5.80;;;;;;;22.93;58.45;100589.81;4997532;28;20124;-69
2023/09/28 07:09:05;;;;;;;16.98;5.95;;;;;;;23.40;56.47;100577.72;5029563;28;20147;-72
2023/09/28 07:11:32;;;;;;;14.55;5.50;;;;;;;23.99;54.03;100574.56;5067931;28;20045;-72
2023/09/28 07:13:58;;;;;;;11.32;5.38;;;;;;;25.70;50.30;100567.69;5034867;28;20640;-73
2023/09/28 07:16:24;;;;;;;13.48;4.55;;;;;;;28.49;43.31;100567.41;5035122;28;20048;-74
2023/09/28 07:18:50;;;;;;;14.73;4.97;;;;;;;30.91;35.44;100565.84;5011888;28;20140;-72
2023/09/28 07:21:16;;;;;;;9.90;3.70;;;;;;;32.80;30.31;100568.97;4997814;28;20057;-74
2023/09/28 07:23:42;;;;;;;17.60;3.65;;;;;;;33.78;27.16;100569.84;5016082;28;20053;-75
2023/09/28 07:26:18;;;;;;;10.43;3.90;;;;;;;35.45;24.54;100556.69;5032323;28;20037;-72
2023/09/28 07:28:46;;;;;;;11.82;3.78;;;;;;;36.72;22.54;100552.22;4999570;28;20057;-73
2023/09/28 07:31:13;;;;;;;10.75;3.67;;;;;;;37.49;20.65;100544.72;5015902;28;20130;-74
2023/09/28 07:33:40;;;;;;;13.73;3.95;;;;;;;38.32;20.16;100561.50;5015594;28;20487;-71
2023/09/28 07:36:07;;;;;;;5.20;3.63;;;;;;;39.03;18.53;100546.44;5032466;28;20080;-73
2023/09/28 07:38:33;;;;;;;7.22;3.20;;;;;;;39.68;18.02;100543.53;4983049;28;20057;-75
2023/09/28 07:41:00;;;;;;;6.25;2.67;;;;;;;38.82;17.39;100547.34;4998377;28;20058;-77
2023/09/28 07:43:26;;;;;;;7.13;2.90;;;;;;;39.22;17.71;100537.78;4963954;28;20510;-78
2023/09/28 07:45:52;;;;;;;8.93;3.00;;;;;;;38.93;17.19;100543.13;4963791;28;20073;-76
2023/09/28 07:48:18;;;;;;;5.72;2.85;;;;;;;39.65;17.07;100538.63;4995851;28;20042;-75
2023/09/28 07:50:44;;;;;;;9.35;3.38;;;;;;;40.58;16.14;100545.94;4997500;28;20084;-77
2023/09/28 07:53:10;;;;;;;9.13;3.72;;;;;;;41.24;15.88;100544.31;5000125;28;20131;-77
2023/09/28 07:55:37;;;;;;;10.65;3.65;;;;;;;41.44;15.16;100549.06;5016994;28;20042;-71
2023/09/28 07:58:03;;;;;;;5.32;2.50;;;;;;;42.31;14.06;100545.09;5033542;28;20064;-77
2023/09/28 08:00:29;;;;;;;5.18;2.47;;;;;;;42.96;13.52;100533.72;5016278;28;20049;-71
2023/09/28 08:02:55;;;;;;;7.38;2.25;;;;;;;42.52;13.90;100524.28;5033786;28;20373;-78
2023/09/28 08:05:22;;;;;;;7.70;2.60;;;;;;;43.32;12.87;100533.66;5016322;28;20107;-72
2023/09/28 08:07:48;;;;;;;9.73;2.20;;;;;;;43.30;12.42;100530.41;5032540;28;20132;-69
2023/09/28 08:10:15;;;;;;;3.88;2.30;;;;;;;42.99;12.58;100533.03;5032246;28;20132;-70
2023/09/28 08:12:42;;;;;;;4.65;2.60;;;;;;;41.81;13.70;100530.53;5031569;28;20045;-71
2023/09/28 08:15:08;;;;;;;4.80;2.53;;;;;;;42.05;13.81;100513.84;5032832;28;20041;-67
2023/09/28 08:17:36;;;;;;;3.97;2.58;;;;;;;42.56;12.75;100519.66;5032725;28;20494;-66
2023/09/28 08:20:03;;;;;;;5.82;2.67;;;;;;;43.38;12.63;100521.03;5041069;28;20056;-67
2023/09/28 08:22:33;;;;;;;8.68;2.63;;;;;;;44.62;12.05;100501.69;5041256;28;20048;-68
2023/09/28 08:24:59;;;;;;;7.63;3.40;;;;;;;44.07;11.87;100518.66;5047810;28;20045;-68
2023/09/28 08:27:26;;;;;;;3.53;2.30;;;;;;;44.50;11.74;100507.38;5074106;28;20529;-68
2023/09/28 08:29:52;;;;;;;10.32;2.30;;;;;;;45.02;11.29;100507.06;5040962;28;20129;-68
2023/09/28 08:32:18;;;;;;;5.30;2.90;;;;;;;45.36;11.08;100500.59;5015844;28;20457;-68
2023/09/28 08:34:44;;;;;;;8.52;2.45;;;;;;;46.23;10.58;100500.72;5042424;28;20132;-69
2023/09/28 08:37:10;;;;;;;2.97;2.30;;;;;;;45.88;10.20;100492.47;5024280;28;20132;-68
2023/09/28 08:39:37;;;;;;;6.53;2.42;;;;;;;45.24;10.78;100492.31;5024678;28;20041;-67
2023/09/28 08:42:04;;;;;;;5.60;2.40;;;;;;;45.58;10.89;100483.00;5043175;28;20051;-68
2023/09/28 08:44:46;;;;;;;7.80;2.30;;;;;;;45.81;10.19;100483.09;5028359;28;20458;-70
2023/09/28 08:47:22;;;;;;;7.10;2.00;;;;;;;46.10;10.37;100483.19;5044335;28;20045;-72
2023/09/28 08:49:50;;;;;;;3.90;2.30;;;;;;;46.55;9.60;100473.97;5025734;28;20051;-73
2023/09/28 08:52:17;;;;;;;7.05;2.20;;;;;;;46.75;9.90;100464.22;5026067;28;20037;-71
2023/09/28 08:54:44;;;;;;;8.88;2.40;;;;;;;45.72;9.98;100460.00;5041645;28;20037;-73
2023/09/28 08:57:12;;;;;;;6.82;2.25;;;;;;;45.16;10.75;100456.06;5028233;28;20049;-72
2023/09/28 08:59:38;;;;;;;6.15;2.42;;;;;;;45.25;10.76;100453.84;5061190;28;20143;-70
2023/09/28 09:02:05;;;;;;;6.72;2.42;;;;;;;45.07;10.50;100463.88;5043017;28;20033;-70
2023/09/28 09:04:37;;;;;;;8.65;2.33;;;;;;;44.58;10.81;100464.34;5043480;28;20160;-71
2023/09/28 09:07:05;;;;;;;3.60;2.10;;;;;;;45.18;10.50;100450.91;5004082;28;20088;-69
2023/09/28 09:09:40;;;;;;;5.47;2.10;;;;;;;45.83;9.82;100447.00;5036427;28;20077;-68
2023/09/28 09:12:09;;;;;;;5.40;2.10;;;;;;;46.18;9.56;100450.44;5003695;28;20475;-68
2023/09/28 09:14:35;;;;;;;5.22;2.53;;;;;;;46.33;9.60;100440.25;4974485;28;20056;-68
2023/09/28 09:17:02;;;;;;;5.05;2.25;;;;;;;44.62;10.55;100442.81;5046805;28;20139;-69
2023/09/28 09:19:31;;;;;;;5.07;2.20;;;;;;;45.08;10.22;100435.47;5030165;28;20933;-69
2023/09/28 09:21:57;;;;;;;6.07;2.10;;;;;;;44.12;10.67;100437.16;5013939;28;20144;-68
2023/09/28 09:24:23;;;;;;;5.43;2.03;;;;;;;44.50;10.70;100425.31;5030009;28;20152;-67
2023/09/28 09:26:52;;;;;;;6.97;2.30;;;;;;;45.29;10.23;100424.66;5033119;28;20528;-67
2023/09/28 09:29:19;;;;;;;;;;;;;;;45.29;9.87;100415.44;5030384;28;20140;-65
2023/09/28 09:31:47;;;;;;;3.53;1.98;;;;;;;45.67;10.36;100424.63;5013671;28;20468;-83
2023/09/28 09:34:19;;;;;;;7.28;2.45;;;;;;;44.80;10.28;100414.38;5013499;28;20558;-83
2023/09/28 09:36:57;;;;;;;6.30;2.35;;;;;;;43.87;11.17;100416.13;4997452;28;20489;-82
2023/09/28 09:39:32;;;;;;;7.30;2.67;;;;;;;44.19;11.22;100414.94;5037789;28;20055;-83
2023/09/28 09:41:59;;;;;;;5.90;2.45;;;;;;;44.90;10.86;100411.81;4987305;28;20057;-82
2023/09/28 09:44:26;;;;;;;4.65;2.40;;;;;;;46.54;9.48;100415.28;5015206;28;20045;-81
2023/09/28 09:46:53;;;;;;;5.68;2.38;;;;;;;45.98;9.84;100412.34;5014812;28;20523;-76
2023/09/28 09:49:20;;;;;;;3.83;1.98;;;;;;;46.15;9.85;100411.88;4998136;28;20046;-77
2023/09/28 09:51:47;;;;;;;3.25;2.03;;;;;;;46.42;9.70;100416.31;5048479;28;20041;-78
2023/09/28 09:54:17;;;;;;;3.97;2.05;;;;;;;46.18;9.29;100411.94;5041921;28;20040;-75
2023/09/28 09:56:51;;;;;;;3.92;1.90;;;;;;;46.87;9.24;100404.16;5041468;28;20495;-78
2023/09/28 09:59:19;;;;;;;3.90;1.85;;;;;;;46.99;9.23;100404.72;5037675;28;20084;-81
2023/09/28 10:01:49;;;;;;;5.83;2.23;;;;;;;47.21;9.02;100400.97;5000158;28;20038;-78
2023/09/28 10:04:16;;;;;;;5.60;2.25;;;;;;;46.03;9.29;100401.63;5038795;28;20056;-77
2023/09/28 10:06:51;;;;;;;2.70;1.80;;;;;;;45.46;9.77;100381.31;5022425;28;20060;-81
2023/09/28 10:09:22;;;;;;;5.25;1.90;;;;;;;45.07;10.07;100376.94;5018834;28;20071;-79
2023/09/28 10:11:49;;;;;;;7.07;1.88;;;;;;;45.21;10.21;100369.59;5008218;28;20060;-81
2023/09/28 10:14:20;;;;;;;2.88;1.85;;;;;;;45.37;9.73;100370.31;5002258;28;20034;-80
2023/09/28 10:16:54;;;;;;;4.80;2.10;;;;;;;46.12;9.50;100381.69;5012843;28;20033;-80
2023/09/28 10:19:22;;;;;;;2.22;1.83;;;;;;;46.88;9.12;100367.19;5074374;28;20042;-79
2023/09/28 10:21:51;;;;;;;5.13;2.25;;;;;;;45.98;9.90;100373.03;5041530;28;20044;-81
2023/09/28 10:24:17;;;;;;;5.88;2.10;;;;;;;46.16;9.36;100369.34;5014019;28;20053;-77
2023/09/28 10:26:51;;;;;;;8.85;2.25;;;;;;;45.69;9.92;100373.72;5046008;28;20041;-80
2023/09/28 10:29:23;;;;;;;7.72;2.28;;;;;;;46.24;9.83;100367.47;5050932;28;20090;-82
2023/09/28 10:31:53;;;;;;;9.70;2.10;;;;;;;46.39;8.87;100372.09;5013646;28;20041;-76
2023/09/28 10:34:20;;;;;;;8.10;2.30;;;;;;;42.17;11.46;100360.28;5013772;28;20041;-73
2023/09/28 10:37:15;;;;;;;4.47;2.00;;;;;;;42.23;11.90;100358.88;5013360;28;20434;-75
2023/09/28 10:39:47;;;;;;;5.47;2.10;;;;;;;41.65;11.94;100355.38;5021960;28;20053;-75
2023/09/28 10:42:16;;;;;;;5.93;2.15;;;;;;;41.44;12.31;100360.19;5032731;28;20426;-65
2023/09/28 10:44:48;;;;;;;5.80;2.50;;;;;;;41.05;12.79;100363.53;5050308;28;20554;-65
2023/09/28 10:47:15;;;;;;;4.05;2.03;;;;;;;40.97;12.93;100356.06;5050641;28;20075;-67
2023/09/28 10:49:40;;;;;;;5.10;2.40;;;;;;;41.16;12.59;100355.56;5016383;28;20128;-65
2023/09/28 10:52:09;;;;;;;4.30;2.33;;;;;;;41.86;12.09;100360.84;5050486;28;20156;-65
2023/09/28 10:54:38;;;;;;;4.40;2.50;;;;;;;41.85;12.07;100350.84;5049657;28;20044;-66
2023/09/28 10:57:04;;;;;;;9.10;2.33;;;;;;;41.47;12.33;100353.09;5032726;28;20318;-65
2023/09/28 10:59:31;;;;;;;3.50;2.10;;;;;;;41.60;11.91;100340.81;5032591;28;20049;-67
2023/09/28 11:01:57;;;;;;;7.53;2.30;;;;;;;41.45;12.27;100339.50;5032472;28;20430;-66
2023/09/28 11:04:23;;;;;;;7.47;2.60;;;;;;;41.02;12.64;100336.34;5050084;28;20476;-66
2023/09/28 11:06:49;;;;;;;8.15;2.30;;;;;;;40.53;12.92;100331.69;5032870;28;20041;-66
2023/09/28 11:09:16;;;;;;;4.18;2.80;;;;;;;39.46;14.22;100333.19;5048817;28;20098;-66
2023/09/28 11:11:42;;;;;;;6.57;2.83;;;;;;;39.47;14.33;100328.47;5045126;28;20554;-67
2023/09/28 11:14:10;;;;;;;6.07;2.50;;;;;;;38.29;15.28;100315.09;5006548;28;20045;-67
2023/09/28 11:16:42;;;;;;;6.65;2.30;;;;;;;38.72;15.07;100312.34;5029460;28;20179;-66
2023/09/28 11:19:09;;;;;;;5.35;2.72;;;;;;;38.18;15.73;100308.22;5014193;28;20045;-68
2023/09/28 11:21:35;;;;;;;5.55;2.35;;;;;;;38.25;15.44;100304.97;5035156;28;20364;-66
2023/09/28 11:24:04;;;;;;;6.70;3.17;;;;;;;37.31;15.83;100307.38;5022488;28;20055;-66